Time;durP1;ratioP1;P1;durP2;ratioP2;P2;SDS_P1;SDS_P2;PMS_P1;PMS_P2;Temp;Humidity;BMP_temperature;BMP_pressure;BME280_temperature;BME280_humidity;BME280_pressure;Samples;Min_cycle;Max_cycle;Signal;HPM_P1;HPM_P2
2021/01/19 00:02:03;;;;;;;29.75;15.18;;;;;;;;;;6250580;22;20024;-87
2021/01/19 00:04:30;;;;;;;29.90;15.68;;;;;;;;;;6249618;23;20179;-87
2021/01/19 00:06:56;;;;;;;27.52;14.77;;;;;;;;;;6248708;22;20052;-87
2021/01/19 00:09:22;;;;;;;25.30;14.82;;;;;;;;;;6251163;23;20059;-87
2021/01/19 00:11:48;;;;;;;24.13;14.55;;;;;;;;;;6252371;22;20392;-87
2021/01/19 00:14:14;;;;;;;30.05;16.55;;;;;;;;;;6251348;23;20453;-87
2021/01/19 00:16:47;;;;;;;26.45;15.05;;;;;;;;;;6251701;23;20031;-87
2021/01/19 00:19:13;;;;;;;29.27;16.42;;;;;;;;;;6250572;23;20076;-87
2021/01/19 00:21:41;;;;;;;27.35;15.95;;;;;;;;;;6251051;22;20024;-87
2021/01/19 00:24:08;;;;;;;24.95;15.93;;;;;;;;;;6251464;22;20282;-86
2021/01/19 00:26:39;;;;;;;35.72;17.27;;;;;;;;;;6250456;23;20390;-87
2021/01/19 00:29:08;;;;;;;31.88;16.88;;;;;;;;;;6253159;23;20060;-87
2021/01/19 00:31:37;;;;;;;30.48;17.40;;;;;;;;;;6268866;22;20081;-87
2021/01/19 00:34:06;;;;;;;30.10;16.95;;;;;;;;;;6263524;22;20078;-87
2021/01/19 00:36:35;;;;;;;30.77;17.50;;;;;;;;;;6263355;22;20026;-85
2021/01/19 00:39:01;;;;;;;32.85;17.42;;;;;;;;;;6270828;22;20223;-85
2021/01/19 00:41:37;;;;;;;39.47;18.63;;;;;;;;;;6267372;22;20421;-86
2021/01/19 00:44:03;;;;;;;34.55;17.60;;;;;;;;;;6253514;23;20107;-87
2021/01/19 00:46:31;;;;;;;25.73;16.58;;;;;;;;;;6253229;23;20024;-86
2021/01/19 00:49:02;;;;;;;28.45;17.77;;;;;;;;;;6255029;22;20028;-87
2021/01/19 00:51:34;;;;;;;35.65;18.33;;;;;;;;;;6270132;22;20075;-88
2021/01/19 00:54:04;;;;;;;35.38;19.05;;;;;;;;;;6271329;22;20023;-87
2021/01/19 00:56:39;;;;;;;35.70;19.42;;;;;;;;;;6270189;22;20023;-86
2021/01/19 00:59:06;;;;;;;31.77;18.83;;;;;;;;;;6214598;23;20012;-87
2021/01/19 01:01:35;;;;;;;33.33;18.95;;;;;;;;;;6211557;23;20055;-86
2021/01/19 01:04:04;;;;;;;37.47;21.23;;;;;;;;;;6222839;23;20028;-86
2021/01/19 01:06:30;;;;;;;34.92;20.02;;;;;;;;;;6198129;23;20084;-86
2021/01/19 01:08:57;;;;;;;32.85;20.83;;;;;;;;;;6223404;23;20035;-86
2021/01/19 01:11:23;;;;;;;41.22;20.65;;;;;;;;;;6221854;23;20035;-86
2021/01/19 01:13:49;;;;;;;40.45;21.63;;;;;;;;;;6223931;23;20035;-86
2021/01/19 01:16:15;;;;;;;33.90;21.70;;;;;;;;;;6198026;23;20025;-86
2021/01/19 01:18:42;;;;;;;37.08;21.85;;;;;;;;;;6204760;22;20040;-87
2021/01/19 01:21:20;;;;;;;38.65;22.67;;;;;;;;;;6215227;22;20040;-89
2021/01/19 01:23:47;;;;;;;43.88;23.60;;;;;;;;;;6204634;23;20211;-90
2021/01/19 01:26:15;;;;;;;37.17;22.98;;;;;;;;;;6223901;23;20029;-90
2021/01/19 01:28:41;;;;;;;40.50;24.38;;;;;;;;;;6195241;23;20370;-91
2021/01/19 01:31:08;;;;;;;37.80;23.73;;;;;;;;;;6222866;23;20024;-90
2021/01/19 01:33:34;;;;;;;44.25;25.33;;;;;;;;;;6196363;23;20025;-90
2021/01/19 01:36:00;;;;;;;42.58;25.65;;;;;;;;;;6196392;23;20107;-90
2021/01/19 01:38:26;;;;;;;39.55;23.73;;;;;;;;;;6196959;23;20323;-90
2021/01/19 01:40:55;;;;;;;40.72;24.38;;;;;;;;;;6196069;23;20032;-90
2021/01/19 01:43:21;;;;;;;39.85;24.85;;;;;;;;;;6196481;23;20335;-90
2021/01/19 01:45:47;;;;;;;40.35;24.27;;;;;;;;;;6223391;23;20059;-90
2021/01/19 01:48:13;;;;;;;36.60;23.55;;;;;;;;;;6223734;23;20025;-90
2021/01/19 01:50:46;;;;;;;37.80;24.80;;;;;;;;;;6224285;23;20406;-90
2021/01/19 01:53:12;;;;;;;36.53;24.33;;;;;;;;;;6196993;23;20036;-90
2021/01/19 01:55:39;;;;;;;35.33;24.42;;;;;;;;;;6194518;23;20052;-90
2021/01/19 01:58:05;;;;;;;35.80;22.90;;;;;;;;;;6226123;23;20070;-90
2021/01/19 02:00:35;;;;;;;40.70;23.95;;;;;;;;;;6251288;23;20050;-90
2021/01/19 02:03:01;;;;;;;36.45;24.33;;;;;;;;;;6251221;22;20032;-90
2021/01/19 02:05:27;;;;;;;36.78;23.35;;;;;;;;;;6252091;22;20341;-90
2021/01/19 02:07:54;;;;;;;37.13;24.48;;;;;;;;;;6250845;22;20120;-90
2021/01/19 02:10:35;;;;;;;43.00;24.75;;;;;;;;;;6251061;23;20056;-91
2021/01/19 02:13:01;;;;;;;35.63;23.38;;;;;;;;;;6250455;23;20076;-90
2021/01/19 02:15:40;;;;;;;37.05;23.65;;;;;;;;;;6251950;22;20020;-90
2021/01/19 02:18:06;;;;;;;37.55;23.35;;;;;;;;;;6251465;23;20031;-90
2021/01/19 02:20:47;;;;;;;39.92;24.52;;;;;;;;;;6253226;23;20028;-90
2021/01/19 02:23:22;;;;;;;43.30;24.52;;;;;;;;;;6252508;22;20038;-90
2021/01/19 02:26:12;;;;;;;39.92;24.60;;;;;;;;;;6251735;22;20040;-90
2021/01/19 02:28:43;;;;;;;38.80;23.83;;;;;;;;;;6195672;23;20039;-90
2021/01/19 02:31:31;;;;;;;38.33;23.75;;;;;;;;;;6251326;23;20020;-90
2021/01/19 02:34:11;;;;;;;46.00;24.83;;;;;;;;;;6253182;23;20024;-90
2021/01/19 02:36:50;;;;;;;33.40;22.85;;;;;;;;;;6251200;23;20051;-90
2021/01/19 02:39:31;;;;;;;39.10;23.15;;;;;;;;;;6254425;22;20111;-90
2021/01/19 02:41:59;;;;;;;34.67;22.98;;;;;;;;;;6251558;23;20440;-89
2021/01/19 02:44:26;;;;;;;33.72;22.48;;;;;;;;;;6252533;22;20131;-90
2021/01/19 02:46:59;;;;;;;33.13;22.63;;;;;;;;;;6252798;22;20038;-90
2021/01/19 02:49:25;;;;;;;38.30;23.95;;;;;;;;;;6253477;22;20024;-90
2021/01/19 02:51:55;;;;;;;41.78;24.23;;;;;;;;;;6256279;22;20024;-92
2021/01/19 03:01:35;;;;;;;39.78;24.52;;;;;;;;;;6163374;23;20025;-89
2021/01/19 03:04:04;;;;;;;40.70;23.70;;;;;;;;;;6138533;23;20034;-88
2021/01/19 03:06:30;;;;;;;37.35;23.70;;;;;;;;;;6194444;22;20048;-88
2021/01/19 03:08:57;;;;;;;41.58;24.88;;;;;;;;;;6252622;22;20024;-88
2021/01/19 03:11:24;;;;;;;46.83;24.58;;;;;;;;;;6252982;23;20035;-86
2021/01/19 03:13:51;;;;;;;39.40;24.65;;;;;;;;;;6255133;22;20099;-86
2021/01/19 03:16:19;;;;;;;38.38;24.80;;;;;;;;;;6264966;22;20034;-87
2021/01/19 03:18:46;;;;;;;43.35;23.63;;;;;;;;;;6266384;23;20280;-86
2021/01/19 03:21:12;;;;;;;36.88;22.67;;;;;;;;;;6261038;22;20125;-86
2021/01/19 03:23:41;;;;;;;39.42;23.75;;;;;;;;;;6255950;22;20028;-86
2021/01/19 03:26:08;;;;;;;39.78;22.85;;;;;;;;;;6254005;23;20025;-87
2021/01/19 03:28:35;;;;;;;37.72;22.88;;;;;;;;;;6254676;22;20031;-86
2021/01/19 03:31:08;;;;;;;38.97;23.23;;;;;;;;;;6253117;23;20028;-87
2021/01/19 03:33:34;;;;;;;34.58;22.65;;;;;;;;;;6252762;22;20030;-87
2021/01/19 03:36:00;;;;;;;35.92;22.63;;;;;;;;;;6252795;23;20031;-86
2021/01/19 03:38:29;;;;;;;31.90;22.05;;;;;;;;;;6254183;23;20062;-86
2021/01/19 03:40:55;;;;;;;37.00;22.55;;;;;;;;;;6252795;23;20028;-86
2021/01/19 03:43:21;;;;;;;36.47;23.92;;;;;;;;;;6252580;23;20085;-85
2021/01/19 03:45:47;;;;;;;40.50;22.92;;;;;;;;;;6252271;22;20024;-85
2021/01/19 03:48:14;;;;;;;39.05;23.52;;;;;;;;;;6249102;22;20024;-85
2021/01/19 03:50:40;;;;;;;36.92;23.10;;;;;;;;;;6247657;23;20034;-85
2021/01/19 03:53:06;;;;;;;34.40;22.38;;;;;;;;;;6249634;23;20056;-85
2021/01/19 03:55:32;;;;;;;39.05;24.20;;;;;;;;;;6250510;23;20103;-84
2021/01/19 03:57:58;;;;;;;33.80;22.55;;;;;;;;;;6253636;23;20161;-84
2021/01/19 04:00:25;;;;;;;33.75;20.88;;;;;;;;;;6251762;22;20039;-84
2021/01/19 04:02:53;;;;;;;28.58;20.70;;;;;;;;;;6253190;23;20032;-87
2021/01/19 04:05:21;;;;;;;35.55;21.42;;;;;;;;;;6255329;22;20034;-85
2021/01/19 04:07:48;;;;;;;36.58;21.45;;;;;;;;;;6251459;23;20113;-85
2021/01/19 04:10:19;;;;;;;29.38;19.80;;;;;;;;;;6252512;23;20025;-85
2021/01/19 04:12:49;;;;;;;30.45;21.45;;;;;;;;;;6263222;22;20035;-84
2021/01/19 04:15:15;;;;;;;33.85;21.63;;;;;;;;;;6270343;22;20012;-85
2021/01/19 04:17:41;;;;;;;29.45;19.90;;;;;;;;;;6258083;23;20189;-84
2021/01/19 04:20:09;;;;;;;29.00;19.60;;;;;;;;;;6252348;23;20051;-85
2021/01/19 04:22:36;;;;;;;30.05;19.45;;;;;;;;;;6269900;22;20038;-84
2021/01/19 04:25:03;;;;;;;27.13;18.67;;;;;;;;;;6268880;22;20070;-84
2021/01/19 04:27:29;;;;;;;28.60;18.75;;;;;;;;;;6259428;22;20034;-85
2021/01/19 04:29:56;;;;;;;29.25;19.70;;;;;;;;;;6253664;22;20103;-85
2021/01/19 04:32:22;;;;;;;25.85;18.63;;;;;;;;;;6252507;22;20610;-84
2021/01/19 04:34:48;;;;;;;27.33;18.65;;;;;;;;;;6263141;22;20043;-85
2021/01/19 04:37:15;;;;;;;25.88;18.58;;;;;;;;;;6268775;23;20012;-85
2021/01/19 04:39:41;;;;;;;28.92;18.52;;;;;;;;;;6258169;22;20024;-85
2021/01/19 04:42:07;;;;;;;28.58;19.85;;;;;;;;;;6251603;23;20103;-85
2021/01/19 04:44:36;;;;;;;28.40;18.15;;;;;;;;;;6248821;23;20351;-85
2021/01/19 04:47:03;;;;;;;24.77;16.63;;;;;;;;;;6253265;22;20036;-86
2021/01/19 04:49:31;;;;;;;27.60;17.60;;;;;;;;;;6251395;22;20031;-86
2021/01/19 04:51:59;;;;;;;26.38;16.10;;;;;;;;;;6250448;22;20095;-85
2021/01/19 04:54:31;;;;;;;26.35;16.50;;;;;;;;;;6250841;23;20125;-85
2021/01/19 04:56:59;;;;;;;28.63;17.58;;;;;;;;;;6249670;23;20024;-86
2021/01/19 04:59:25;;;;;;;23.85;15.00;;;;;;;;;;6249709;22;20038;-86
2021/01/19 05:01:55;;;;;;;26.52;14.48;;;;;;;;;;6247634;23;20038;-85
2021/01/19 05:04:28;;;;;;;26.30;15.52;;;;;;;;;;6250134;22;20237;-85
2021/01/19 05:06:57;;;;;;;20.15;13.13;;;;;;;;;;6249917;22;20032;-86
2021/01/19 05:09:29;;;;;;;26.50;14.05;;;;;;;;;;6250809;23;20063;-85
2021/01/19 05:11:59;;;;;;;22.25;15.25;;;;;;;;;;6249641;23;20280;-86
2021/01/19 05:14:34;;;;;;;21.00;12.95;;;;;;;;;;6250657;23;20027;-86
2021/01/19 05:17:01;;;;;;;19.40;12.13;;;;;;;;;;6251572;23;20024;-86
2021/01/19 05:19:29;;;;;;;16.73;11.50;;;;;;;;;;6251974;23;20111;-85
2021/01/19 05:21:55;;;;;;;21.65;11.82;;;;;;;;;;6251054;23;20099;-85
2021/01/19 05:24:22;;;;;;;21.67;11.95;;;;;;;;;;6252882;22;20024;-85
2021/01/19 05:26:52;;;;;;;15.73;9.60;;;;;;;;;;6250518;23;20461;-85
2021/01/19 05:29:20;;;;;;;23.48;10.77;;;;;;;;;;6248394;22;20047;-86
2021/01/19 05:31:50;;;;;;;21.80;10.35;;;;;;;;;;6250496;22;20035;-86
2021/01/19 05:34:17;;;;;;;23.52;10.43;;;;;;;;;;6250905;23;20028;-86
2021/01/19 05:36:48;;;;;;;17.15;10.13;;;;;;;;;;6252568;23;20028;-86
2021/01/19 05:39:20;;;;;;;20.92;10.45;;;;;;;;;;6254081;22;20035;-86
2021/01/19 05:42:02;;;;;;;27.27;10.95;;;;;;;;;;6254216;22;20140;-86
2021/01/19 05:44:29;;;;;;;22.02;10.27;;;;;;;;;;6252299;23;20032;-86
2021/01/19 05:46:59;;;;;;;19.58;10.73;;;;;;;;;;6256630;22;20027;-86
2021/01/19 05:49:28;;;;;;;18.13;10.18;;;;;;;;;;6251948;22;20024;-86
2021/01/19 05:51:57;;;;;;;27.23;9.27;;;;;;;;;;6252162;23;20184;-86
2021/01/19 05:54:25;;;;;;;20.08;9.85;;;;;;;;;;6252230;22;20028;-86
2021/01/19 05:56:58;;;;;;;20.63;9.70;;;;;;;;;;6250417;22;20046;-86
2021/01/19 05:59:29;;;;;;;16.80;9.45;;;;;;;;;;6254856;22;20085;-86
2021/01/19 06:01:59;;;;;;;16.73;9.68;;;;;;;;;;6268759;22;20016;-87
2021/01/19 06:04:29;;;;;;;22.40;10.02;;;;;;;;;;6262278;22;20290;-85
2021/01/19 06:07:02;;;;;;;20.70;10.93;;;;;;;;;;6252616;23;20032;-86
2021/01/19 06:09:28;;;;;;;22.02;10.27;;;;;;;;;;6251658;23;20024;-86
2021/01/19 06:11:56;;;;;;;16.80;9.07;;;;;;;;;;6251279;22;20046;-86
2021/01/19 06:14:26;;;;;;;19.67;8.80;;;;;;;;;;6247787;23;20024;-86
2021/01/19 06:17:22;;;;;;;20.02;9.18;;;;;;;;;;6248107;22;20111;-87
2021/01/19 06:19:50;;;;;;;17.48;7.60;;;;;;;;;;6230847;22;20028;-86
2021/01/19 06:22:23;;;;;;;11.30;6.40;;;;;;;;;;6250776;22;20127;-86
2021/01/19 06:24:50;;;;;;;13.65;6.47;;;;;;;;;;6252318;23;20050;-85
2021/01/19 06:27:22;;;;;;;15.70;6.60;;;;;;;;;;6251736;23;20372;-85
2021/01/19 06:29:58;;;;;;;15.32;6.80;;;;;;;;;;6249275;23;20390;-85
2021/01/19 06:32:24;;;;;;;12.13;6.35;;;;;;;;;;6249926;23;20023;-86
2021/01/19 06:34:52;;;;;;;13.13;6.43;;;;;;;;;;6250841;23;20087;-86
2021/01/19 06:37:25;;;;;;;11.27;5.55;;;;;;;;;;6252786;23;20028;-86
2021/01/19 06:39:56;;;;;;;13.75;6.10;;;;;;;;;;6251060;23;20051;-86
2021/01/19 06:42:26;;;;;;;12.57;6.75;;;;;;;;;;6251433;23;20026;-87
2021/01/19 06:44:54;;;;;;;10.68;5.75;;;;;;;;;;6250195;23;20020;-86
2021/01/19 06:47:24;;;;;;;13.93;5.68;;;;;;;;;;6248084;22;20024;-87
2021/01/19 06:49:57;;;;;;;16.23;6.43;;;;;;;;;;6263694;22;20028;-84
2021/01/19 06:52:32;;;;;;;11.20;5.80;;;;;;;;;;6264710;22;20167;-86
2021/01/19 06:55:13;;;;;;;14.67;5.77;;;;;;;;;;6264330;22;20028;-85
2021/01/19 06:57:40;;;;;;;11.20;5.93;;;;;;;;;;6264494;22;20026;-85
2021/01/19 07:00:10;;;;;;;14.35;6.70;;;;;;;;;;6252193;22;20173;-86
2021/01/19 07:02:38;;;;;;;17.52;6.78;;;;;;;;;;6249702;22;20072;-87
2021/01/19 07:05:14;;;;;;;12.73;6.10;;;;;;;;;;6258064;22;20064;-87
2021/01/19 07:07:41;;;;;;;10.07;6.45;;;;;;;;;;6264824;22;20043;-87
2021/01/19 07:10:08;;;;;;;11.10;5.97;;;;;;;;;;6251580;22;20417;-87
2021/01/19 07:15:58;;;;;;;11.10;6.40;;;;;;;;;;6254552;22;20028;-89
2021/01/19 07:18:56;;;;;;;10.55;6.22;;;;;;;;;;6251470;23;20024;-87
2021/01/19 07:21:28;;;;;;;14.27;7.28;;;;;;;;;;6249525;23;20246;-86
2021/01/19 07:24:13;;;;;;;10.18;7.10;;;;;;;;;;6247681;22;20024;-86
2021/01/19 07:26:43;;;;;;;11.60;6.70;;;;;;;;;;6257092;22;20016;-87
2021/01/19 07:29:09;;;;;;;11.85;7.10;;;;;;;;;;6251228;22;20118;-87
2021/01/19 07:31:44;;;;;;;10.98;6.63;;;;;;;;;;6250459;23;20168;-87
2021/01/19 07:34:12;;;;;;;10.43;7.25;;;;;;;;;;6249111;22;20350;-87
2021/01/19 07:36:52;;;;;;;12.35;7.40;;;;;;;;;;6248295;22;20051;-86
2021/01/19 07:39:20;;;;;;;10.95;7.22;;;;;;;;;;6250619;22;20464;-87
2021/01/19 07:41:47;;;;;;;15.80;7.30;;;;;;;;;;6248709;22;20322;-88
2021/01/19 07:44:21;;;;;;;13.50;7.50;;;;;;;;;;6248305;22;20032;-87
2021/01/19 07:47:07;;;;;;;13.57;7.53;;;;;;;;;;6247040;23;20085;-87
2021/01/19 07:49:33;;;;;;;13.75;7.78;;;;;;;;;;6257112;22;20105;-87
2021/01/19 07:52:08;;;;;;;10.90;7.45;;;;;;;;;;6250602;23;20048;-87
2021/01/19 07:54:42;;;;;;;10.70;7.85;;;;;;;;;;6254360;23;20337;-86
2021/01/19 07:57:11;;;;;;;10.30;8.48;;;;;;;;;;6252822;22;20035;-87
2021/01/19 07:59:38;;;;;;;11.32;8.25;;;;;;;;;;6252969;22;20032;-86
2021/01/19 08:02:05;;;;;;;9.27;8.10;;;;;;;;;;6250296;23;20213;-86
2021/01/19 08:04:34;;;;;;;11.30;8.85;;;;;;;;;;6256224;22;20024;-87
2021/01/19 08:07:13;;;;;;;9.82;7.95;;;;;;;;;;6257340;22;20042;-86
2021/01/19 08:09:40;;;;;;;11.55;7.53;;;;;;;;;;6263401;22;20050;-86
2021/01/19 08:12:11;;;;;;;12.07;7.15;;;;;;;;;;6259823;22;20264;-86
2021/01/19 08:14:39;;;;;;;12.98;8.60;;;;;;;;;;6250834;22;20205;-86
2021/01/19 08:17:35;;;;;;;13.25;7.63;;;;;;;;;;6254135;22;20047;-87
2021/01/19 08:20:04;;;;;;;13.05;9.00;;;;;;;;;;6253945;22;20205;-86
2021/01/19 08:22:30;;;;;;;9.02;6.80;;;;;;;;;;6261564;23;20119;-86
2021/01/19 08:25:00;;;;;;;9.27;7.43;;;;;;;;;;6256155;23;20028;-86
2021/01/19 08:27:27;;;;;;;12.63;8.02;;;;;;;;;;6249259;22;20163;-86
2021/01/19 08:30:07;;;;;;;11.68;8.05;;;;;;;;;;6251683;22;20276;-87
2021/01/19 08:32:33;;;;;;;13.32;8.13;;;;;;;;;;6249648;23;20024;-87
2021/01/19 08:35:01;;;;;;;11.85;7.55;;;;;;;;;;6253046;23;20034;-86
2021/01/19 08:37:33;;;;;;;8.30;7.28;;;;;;;;;;6255640;22;20035;-87
2021/01/19 08:40:00;;;;;;;11.20;7.72;;;;;;;;;;6255012;23;20055;-86
2021/01/19 08:42:36;;;;;;;9.45;7.60;;;;;;;;;;6253298;23;20051;-86
2021/01/19 08:45:10;;;;;;;9.10;7.97;;;;;;;;;;6254985;23;20272;-85
2021/01/19 08:47:39;;;;;;;8.27;7.30;;;;;;;;;;6253408;22;20040;-84
2021/01/19 08:50:15;;;;;;;10.90;6.75;;;;;;;;;;6249376;22;20024;-87
2021/01/19 08:52:42;;;;;;;9.80;6.28;;;;;;;;;;6251539;23;20027;-85
2021/01/19 08:55:15;;;;;;;8.05;6.57;;;;;;;;;;6252167;22;20035;-85
2021/01/19 08:57:58;;;;;;;6.75;5.57;;;;;;;;;;6252413;22;20016;-86
2021/01/19 09:00:26;;;;;;;8.02;6.22;;;;;;;;;;6250291;22;20038;-86
2021/01/19 09:02:56;;;;;;;8.85;6.20;;;;;;;;;;6250352;22;20038;-86
2021/01/19 09:05:31;;;;;;;6.63;5.95;;;;;;;;;;6261297;22;20032;-88
2021/01/19 09:07:58;;;;;;;6.13;5.28;;;;;;;;;;6261129;22;20111;-86
2021/01/19 09:10:26;;;;;;;8.23;5.65;;;;;;;;;;6251142;22;20024;-86
2021/01/19 09:13:29;;;;;;;7.10;5.75;;;;;;;;;;6264775;22;20028;-89
2021/01/19 09:16:08;;;;;;;6.15;5.30;;;;;;;;;;6254495;22;20028;-87
2021/01/19 09:18:34;;;;;;;5.60;4.75;;;;;;;;;;6255662;22;20268;-86
2021/01/19 09:21:08;;;;;;;7.07;4.78;;;;;;;;;;6250230;23;20025;-86
2021/01/19 09:23:37;;;;;;;7.45;5.30;;;;;;;;;;6256602;22;20024;-87
2021/01/19 09:26:05;;;;;;;7.15;4.57;;;;;;;;;;6254711;22;20035;-87
2021/01/19 09:28:34;;;;;;;5.80;4.65;;;;;;;;;;6253731;22;20047;-88
2021/01/19 09:31:11;;;;;;;6.80;4.97;;;;;;;;;;6253829;23;20024;-88
2021/01/19 09:33:39;;;;;;;6.07;4.47;;;;;;;;;;6247770;23;20063;-87
2021/01/19 09:36:09;;;;;;;7.03;4.88;;;;;;;;;;6251326;22;20032;-87
2021/01/19 09:38:37;;;;;;;6.43;4.07;;;;;;;;;;6251744;22;20052;-88
2021/01/19 09:41:06;;;;;;;7.05;4.25;;;;;;;;;;6250215;22;20020;-88
2021/01/19 09:43:46;;;;;;;5.45;3.53;;;;;;;;;;6252865;22;20218;-88
2021/01/19 09:46:13;;;;;;;5.97;3.95;;;;;;;;;;6255545;22;20024;-89
2021/01/19 09:48:45;;;;;;;5.25;4.03;;;;;;;;;;6252927;23;20055;-90
2021/01/19 09:51:14;;;;;;;4.70;4.10;;;;;;;;;;6254330;23;20030;-91
2021/01/19 09:53:41;;;;;;;5.45;3.97;;;;;;;;;;6254441;23;20550;-91
2021/01/19 09:56:24;;;;;;;5.85;3.78;;;;;;;;;;6260648;22;20465;-91
2021/01/19 09:59:01;;;;;;;4.40;3.95;;;;;;;;;;6264377;22;20012;-91
2021/01/19 10:01:27;;;;;;;6.95;3.88;;;;;;;;;;6262123;22;20058;-91
2021/01/19 10:03:57;;;;;;;4.72;3.90;;;;;;;;;;6257565;23;20052;-91
2021/01/19 10:06:46;;;;;;;4.43;3.72;;;;;;;;;;6258087;23;20028;-91
2021/01/19 10:09:25;;;;;;;4.75;4.05;;;;;;;;;;6260964;23;20047;-92
2021/01/19 10:12:27;;;;;;;4.75;3.97;;;;;;;;;;6263756;23;20012;-92
2021/01/19 10:14:58;;;;;;;4.38;3.97;;;;;;;;;;6204779;23;20012;-92
2021/01/19 10:18:02;;;;;;;5.60;3.95;;;;;;;;;;6262604;22;20012;-93
2021/01/19 10:24:31;;;;;;;4.65;4.25;;;;;;;;;;6242109;22;20108;-91
2021/01/19 10:27:33;;;;;;;5.75;4.32;;;;;;;;;;6236539;22;20157;-90
2021/01/19 10:30:42;;;;;;;4.32;3.92;;;;;;;;;;6208028;23;20035;-92
2021/01/19 10:33:24;;;;;;;5.97;4.65;;;;;;;;;;6201839;23;20151;-92
2021/01/19 10:36:22;;;;;;;8.05;4.35;;;;;;;;;;6201320;23;20024;-92
2021/01/19 10:39:07;;;;;;;5.65;4.95;;;;;;;;;;6197926;23;20028;-92
2021/01/19 10:41:36;;;;;;;5.60;5.00;;;;;;;;;;6202828;23;20059;-91
2021/01/19 10:44:46;;;;;;;6.57;4.53;;;;;;;;;;6226649;23;20047;-94
2021/01/19 10:47:28;;;;;;;5.03;4.50;;;;;;;;;;6202973;23;20090;-93
2021/01/19 10:50:29;;;;;;;7.50;5.20;;;;;;;;;;6228011;23;20031;-93
2021/01/19 10:53:19;;;;;;;;;;;;;;;;;;;;;
2021/01/19 10:56:32;;;;;;;5.88;4.65;;;;;;;;;;6232379;23;20301;-93
2021/01/19 10:59:16;;;;;;;5.40;4.78;;;;;;;;;;6207343;23;20128;-93
2021/01/19 11:02:39;;;;;;;5.38;4.57;;;;;;;;;;6231976;23;20024;-92
2021/01/19 11:05:52;;;;;;;;;;;;;;;;;;;;;
2021/01/19 11:09:19;;;;;;;;;;;;;;;;;;;;;
2021/01/19 11:19:51;;;;;;;6.05;4.10;;;;;;;;;;6137084;23;20278;-88
2021/01/19 11:22:31;;;;;;;6.00;5.05;;;;;;;;;;6134179;23;20033;-89
2021/01/19 12:11:22;;;;;;;5.13;4.63;;;;;;;;;;6231490;23;20048;-87
2021/01/19 12:13:52;;;;;;;5.20;4.47;;;;;;;;;;6206056;23;20024;-86
2021/01/19 12:16:23;;;;;;;5.05;4.55;;;;;;;;;;6209090;23;20025;-91
2021/01/19 12:18:50;;;;;;;4.47;4.07;;;;;;;;;;6204235;23;20029;-91
2021/01/19 12:21:25;;;;;;;4.45;4.03;;;;;;;;;;6204955;23;20164;-90
2021/01/19 12:23:54;;;;;;;5.03;4.32;;;;;;;;;;6206111;23;20032;-91
2021/01/19 12:26:21;;;;;;;4.68;4.20;;;;;;;;;;6231169;23;20029;-90
2021/01/19 12:28:55;;;;;;;4.15;3.75;;;;;;;;;;6210106;23;20029;-91
2021/01/19 12:31:23;;;;;;;4.20;3.55;;;;;;;;;;6233417;23;20269;-91
2021/01/19 12:33:50;;;;;;;5.57;2.92;;;;;;;;;;6208742;23;20045;-90
2021/01/19 12:36:30;;;;;;;4.15;3.75;;;;;;;;;;6240283;22;20029;-90
2021/01/19 12:39:03;;;;;;;4.47;3.80;;;;;;;;;;6214995;22;20097;-89
2021/01/19 12:41:33;;;;;;;3.75;3.38;;;;;;;;;;6215110;22;20274;-90
2021/01/19 12:44:14;;;;;;;;;;;;;;;;;;;;;
2021/01/19 12:46:45;;;;;;;3.53;3.15;;;;;;;;;;6235685;22;20453;-90
2021/01/19 12:49:26;;;;;;;3.35;3.05;;;;;;;;;;6211448;22;20035;-91
2021/01/19 13:40:41;;;;;;;8.98;8.18;;;;;;;;;;6228907;22;20020;-90
2021/01/19 13:43:28;;;;;;;8.85;7.95;;;;;;;;;;6213838;23;20261;-90
2021/01/19 13:48:57;;;;;;;9.20;8.30;;;;;;;;;;6232567;23;19993;-89
2021/01/19 13:51:53;;;;;;;9.52;8.00;;;;;;;;;;6212218;23;20401;-90
2021/01/19 13:54:44;;;;;;;8.63;7.82;;;;;;;;;;6209999;23;20020;-89
2021/01/19 13:57:46;;;;;;;7.75;7.05;;;;;;;;;;6230918;23;20192;-90
2021/01/19 14:00:31;;;;;;;6.68;6.07;;;;;;;;;;6209201;23;20051;-90
2021/01/19 14:24:14;;;;;;;6.40;4.75;;;;;;;;;;6240183;22;20063;-92
2021/01/19 14:27:03;;;;;;;5.88;5.38;;;;;;;;;;6260687;22;20032;-90
2021/01/19 14:29:52;;;;;;;5.97;5.38;;;;;;;;;;6258200;22;20110;-92
2021/01/19 14:32:46;;;;;;;6.93;5.40;;;;;;;;;;6255354;22;20031;-92
2021/01/19 14:35:25;;;;;;;6.07;5.57;;;;;;;;;;6262858;22;20027;-93
2021/01/19 14:38:25;;;;;;;;;;;;;;;;;;6267577;22;20023;-91
2021/01/19 14:41:15;;;;;;;5.97;5.38;;;;;;;;;;6265031;22;19920;-91
2021/01/19 14:43:59;;;;;;;5.70;4.80;;;;;;;;;;6259590;23;20054;-91
2021/01/19 14:46:33;;;;;;;6.78;5.93;;;;;;;;;;6257571;23;20048;-91
2021/01/19 14:49:12;;;;;;;6.68;5.10;;;;;;;;;;6259394;23;20024;-92
2021/01/19 14:51:44;;;;;;;7.63;5.70;;;;;;;;;;6260155;23;20197;-92
2021/01/19 14:54:28;;;;;;;7.07;5.53;;;;;;;;;;6238485;23;20090;-92
2021/01/19 14:57:19;;;;;;;7.78;5.70;;;;;;;;;;6262849;22;20050;-92
2021/01/19 15:00:25;;;;;;;9.57;5.28;;;;;;;;;;6261003;22;20043;-92
2021/01/19 15:03:11;;;;;;;10.25;5.30;;;;;;;;;;6258381;22;20028;-91
2021/01/19 15:28:28;;;;;;;8.75;7.57;;;;;;;;;;6210453;22;20055;-88
2021/01/19 15:30:56;;;;;;;14.82;8.27;;;;;;;;;;6230580;23;20024;-88
2021/01/19 15:33:25;;;;;;;11.68;8.52;;;;;;;;;;6203241;23;20078;-88
2021/01/19 15:35:53;;;;;;;12.73;9.60;;;;;;;;;;6203646;23;20024;-88
2021/01/19 15:38:33;;;;;;;11.63;10.43;;;;;;;;;;6208434;23;20071;-89
2021/01/19 15:41:02;;;;;;;14.40;10.50;;;;;;;;;;6207633;22;20090;-88
2021/01/19 15:43:29;;;;;;;14.40;9.95;;;;;;;;;;6207903;22;20079;-86
2021/01/19 15:45:56;;;;;;;11.30;8.82;;;;;;;;;;6199704;23;20028;-86
2021/01/19 15:48:23;;;;;;;10.40;9.07;;;;;;;;;;6197100;23;20021;-87
2021/01/19 15:50:49;;;;;;;10.70;8.88;;;;;;;;;;6196640;23;20024;-86
2021/01/19 15:53:16;;;;;;;10.07;8.65;;;;;;;;;;6196241;23;20016;-86
2021/01/19 15:55:45;;;;;;;10.18;7.57;;;;;;;;;;6196357;23;20080;-87
2021/01/19 15:58:11;;;;;;;9.75;7.70;;;;;;;;;;6196170;23;20039;-87
2021/01/19 16:00:38;;;;;;;10.93;8.65;;;;;;;;;;6221669;23;20146;-88
2021/01/19 16:03:07;;;;;;;9.38;7.75;;;;;;;;;;6194420;23;20034;-87
2021/01/19 16:05:35;;;;;;;9.50;7.95;;;;;;;;;;6192031;23;20060;-86
2021/01/19 16:08:02;;;;;;;9.98;8.13;;;;;;;;;;6218697;23;20103;-86
2021/01/19 16:10:38;;;;;;;12.70;8.02;;;;;;;;;;6192574;23;20029;-87
2021/01/19 16:13:04;;;;;;;9.05;8.15;;;;;;;;;;6189057;23;20071;-87
2021/01/19 16:15:31;;;;;;;11.00;8.00;;;;;;;;;;6214670;23;20300;-87
2021/01/19 16:17:59;;;;;;;11.63;9.25;;;;;;;;;;6189475;23;20402;-86
2021/01/19 16:20:26;;;;;;;9.55;8.07;;;;;;;;;;6189476;23;20039;-86
2021/01/19 16:22:52;;;;;;;11.82;8.55;;;;;;;;;;6189487;23;20472;-85
2021/01/19 16:25:19;;;;;;;9.18;8.18;;;;;;;;;;6216078;23;20024;-86
2021/01/19 16:27:49;;;;;;;10.07;8.50;;;;;;;;;;6191464;23;20311;-87
2021/01/19 16:30:15;;;;;;;10.48;8.10;;;;;;;;;;6242656;23;20024;-87
2021/01/19 16:32:42;;;;;;;11.77;8.50;;;;;;;;;;6222233;23;20202;-86
2021/01/19 16:35:09;;;;;;;12.02;8.52;;;;;;;;;;6225587;23;20047;-86
2021/01/19 16:37:40;;;;;;;12.60;8.70;;;;;;;;;;6223976;23;20024;-86
2021/01/19 16:40:09;;;;;;;23.77;8.80;;;;;;;;;;6225862;23;20048;-86
2021/01/19 16:42:38;;;;;;;13.18;8.85;;;;;;;;;;6222522;23;20051;-86
2021/01/19 16:45:05;;;;;;;14.50;8.52;;;;;;;;;;6253321;23;20032;-85
2021/01/19 16:47:31;;;;;;;8.80;7.32;;;;;;;;;;6234717;22;20016;-86
2021/01/19 16:49:58;;;;;;;10.45;8.13;;;;;;;;;;6263737;22;20032;-87
2021/01/19 16:52:24;;;;;;;118.07;14.88;;;;;;;;;;6234149;23;20028;-87
2021/01/19 16:54:57;;;;;;;19.65;9.95;;;;;;;;;;6227019;23;20047;-86
2021/01/19 16:57:24;;;;;;;11.50;8.75;;;;;;;;;;6223341;23;20028;-87
2021/01/19 16:59:50;;;;;;;9.30;8.15;;;;;;;;;;6230985;23;20028;-86
2021/01/19 17:02:17;;;;;;;11.90;8.60;;;;;;;;;;6230295;23;20024;-86
2021/01/19 17:04:44;;;;;;;12.35;9.18;;;;;;;;;;6252056;23;20042;-87
2021/01/19 17:07:10;;;;;;;11.27;8.60;;;;;;;;;;6223697;23;20024;-86
2021/01/19 17:09:36;;;;;;;11.02;9.00;;;;;;;;;;6224961;23;20012;-85
2021/01/19 17:12:03;;;;;;;10.48;7.90;;;;;;;;;;6230781;23;20016;-87
2021/01/19 17:14:29;;;;;;;11.25;9.05;;;;;;;;;;6230505;23;20075;-86
2021/01/19 17:17:16;;;;;;;13.43;9.38;;;;;;;;;;6229172;23;20024;-86
2021/01/19 17:19:44;;;;;;;15.73;10.25;;;;;;;;;;6230118;23;20042;-87
2021/01/19 17:22:10;;;;;;;14.48;11.40;;;;;;;;;;6225632;23;20066;-86
2021/01/19 17:24:46;;;;;;;13.88;12.10;;;;;;;;;;6225405;23;20031;-86
2021/01/19 17:27:13;;;;;;;14.15;11.57;;;;;;;;;;6253394;23;20024;-86
2021/01/19 17:29:39;;;;;;;16.80;12.23;;;;;;;;;;6243675;23;20568;-86
2021/01/19 17:32:16;;;;;;;12.90;10.73;;;;;;;;;;6258433;23;20028;-87
2021/01/19 17:34:42;;;;;;;;;;;;;;;;;;6252957;22;20078;-87
2021/01/19 17:37:08;;;;;;;13.60;10.15;;;;;;;;;;6250742;23;19950;-86
2021/01/19 17:39:35;;;;;;;13.20;10.18;;;;;;;;;;6250015;23;20161;-87
2021/01/19 17:42:02;;;;;;;11.70;9.52;;;;;;;;;;6248877;22;20301;-86
2021/01/19 17:44:29;;;;;;;10.25;7.85;;;;;;;;;;6254855;22;20039;-86
2021/01/19 17:46:55;;;;;;;11.38;8.65;;;;;;;;;;6253627;22;20024;-86
2021/01/19 17:49:25;;;;;;;11.25;8.38;;;;;;;;;;6250086;22;20024;-86